sensor_id;sensor_type;location;lat;lon;timestamp;temperature;humidity
24468;DHT22;12634;50.852;5.676;2023-08-12T00:00:25;22.80;99.90
24468;DHT22;12634;50.852;5.676;2023-08-12T00:02:53;22.90;99.90
24468;DHT22;12634;50.852;5.676;2023-08-12T00:05:20;22.80;99.90
24468;DHT22;12634;50.852;5.676;2023-08-12T00:07:48;22.80;99.90
24468;DHT22;12634;50.852;5.676;2023-08-12T00:10:15;22.80;99.90
24468;DHT22;12634;50.852;5.676;2023-08-12T00:12:43;22.80;99.90
24468;DHT22;12634;50.852;5.676;2023-08-12T00:15:10;22.70;99.90
24468;DHT22;12634;50.852;5.676;2023-08-12T00:17:39;22.70;99.90
24468;DHT22;12634;50.852;5.676;2023-08-12T00:20:08;22.70;99.90
24468;DHT22;12634;50.852;5.676;2023-08-12T00:22:36;22.60;99.90
24468;DHT22;12634;50.852;5.676;2023-08-12T00:25:05;22.60;99.90
24468;DHT22;12634;50.852;5.676;2023-08-12T00:27:32;22.60;99.90
24468;DHT22;12634;50.852;5.676;2023-08-12T00:30:00;22.70;99.90
24468;DHT22;12634;50.852;5.676;2023-08-12T00:32:27;22.60;99.90
24468;DHT22;12634;50.852;5.676;2023-08-12T00:34:55;22.60;99.90
24468;DHT22;12634;50.852;5.676;2023-08-12T00:37:23;22.60;99.90
24468;DHT22;12634;50.852;5.676;2023-08-12T00:39:50;22.70;99.90
24468;DHT22;12634;50.852;5.676;2023-08-12T00:42:17;22.60;99.90
24468;DHT22;12634;50.852;5.676;2023-08-12T00:44:44;22.60;99.90
24468;DHT22;12634;50.852;5.676;2023-08-12T00:47:12;22.60;99.90
24468;DHT22;12634;50.852;5.676;2023-08-12T00:49:40;22.60;99.90
24468;DHT22;12634;50.852;5.676;2023-08-12T00:52:11;22.60;99.90
24468;DHT22;12634;50.852;5.676;2023-08-12T00:54:38;22.60;99.90
24468;DHT22;12634;50.852;5.676;2023-08-12T00:57:06;22.60;99.90
24468;DHT22;12634;50.852;5.676;2023-08-12T00:59:35;22.60;99.90
24468;DHT22;12634;50.852;5.676;2023-08-12T01:02:03;22.60;99.90
24468;DHT22;12634;50.852;5.676;2023-08-12T01:04:31;22.50;99.90
24468;DHT22;12634;50.852;5.676;2023-08-12T01:06:58;22.50;99.90
24468;DHT22;12634;50.852;5.676;2023-08-12T01:09:26;22.40;99.90
24468;DHT22;12634;50.852;5.676;2023-08-12T01:11:59;22.50;99.90
24468;DHT22;12634;50.852;5.676;2023-08-12T01:14:33;22.40;99.90
24468;DHT22;12634;50.852;5.676;2023-08-12T01:17:05;22.40;99.90
24468;DHT22;12634;50.852;5.676;2023-08-12T01:19:35;22.50;99.90
24468;DHT22;12634;50.852;5.676;2023-08-12T01:22:05;22.40;99.90
24468;DHT22;12634;50.852;5.676;2023-08-12T01:24:38;22.40;99.90
24468;DHT22;12634;50.852;5.676;2023-08-12T01:27:06;22.40;99.90
24468;DHT22;12634;50.852;5.676;2023-08-12T01:29:34;22.30;99.90
24468;DHT22;12634;50.852;5.676;2023-08-12T01:32:08;22.30;99.90
24468;DHT22;12634;50.852;5.676;2023-08-12T01:34:42;22.40;99.90
24468;DHT22;12634;50.852;5.676;2023-08-12T01:37:20;22.40;99.90
24468;DHT22;12634;50.852;5.676;2023-08-12T01:39:52;22.30;99.90
24468;DHT22;12634;50.852;5.676;2023-08-12T01:42:21;22.30;99.90
24468;DHT22;12634;50.852;5.676;2023-08-12T01:44:50;22.40;99.90
24468;DHT22;12634;50.852;5.676;2023-08-12T01:47:17;22.40;99.90
24468;DHT22;12634;50.852;5.676;2023-08-12T01:49:44;22.40;99.90
24468;DHT22;12634;50.852;5.676;2023-08-12T01:52:11;22.40;99.90
24468;DHT22;12634;50.852;5.676;2023-08-12T01:54:38;22.40;99.90
24468;DHT22;12634;50.852;5.676;2023-08-12T01:57:07;22.40;99.90
24468;DHT22;12634;50.852;5.676;2023-08-12T01:59:35;22.40;99.90
24468;DHT22;12634;50.852;5.676;2023-08-12T02:02:02;22.30;99.90
24468;DHT22;12634;50.852;5.676;2023-08-12T02:04:30;22.30;99.90
24468;DHT22;12634;50.852;5.676;2023-08-12T02:06:57;22.40;99.90
24468;DHT22;12634;50.852;5.676;2023-08-12T02:09:24;22.30;99.90
24468;DHT22;12634;50.852;5.676;2023-08-12T02:11:52;22.30;99.90
24468;DHT22;12634;50.852;5.676;2023-08-12T02:14:20;22.20;99.90
24468;DHT22;12634;50.852;5.676;2023-08-12T02:16:47;22.20;99.90
24468;DHT22;12634;50.852;5.676;2023-08-12T02:19:14;22.20;99.90
24468;DHT22;12634;50.852;5.676;2023-08-12T02:21:42;22.20;99.90
24468;DHT22;12634;50.852;5.676;2023-08-12T02:24:09;22.30;99.90
24468;DHT22;12634;50.852;5.676;2023-08-12T02:26:37;22.30;99.90
24468;DHT22;12634;50.852;5.676;2023-08-12T02:29:04;22.40;99.90
24468;DHT22;12634;50.852;5.676;2023-08-12T02:31:33;22.40;99.90
24468;DHT22;12634;50.852;5.676;2023-08-12T02:34:00;22.50;99.90
24468;DHT22;12634;50.852;5.676;2023-08-12T02:36:28;22.50;99.90
24468;DHT22;12634;50.852;5.676;2023-08-12T02:38:55;22.60;99.90
24468;DHT22;12634;50.852;5.676;2023-08-12T02:41:22;22.50;99.90
24468;DHT22;12634;50.852;5.676;2023-08-12T02:43:50;22.60;99.90
24468;DHT22;12634;50.852;5.676;2023-08-12T02:46:17;22.60;99.90
24468;DHT22;12634;50.852;5.676;2023-08-12T02:48:46;22.50;99.90
24468;DHT22;12634;50.852;5.676;2023-08-12T02:51:14;22.60;99.90
24468;DHT22;12634;50.852;5.676;2023-08-12T02:53:41;22.60;99.90
24468;DHT22;12634;50.852;5.676;2023-08-12T02:56:08;22.60;99.90
24468;DHT22;12634;50.852;5.676;2023-08-12T02:58:35;22.60;99.90
24468;DHT22;12634;50.852;5.676;2023-08-12T03:01:03;22.60;99.90
24468;DHT22;12634;50.852;5.676;2023-08-12T03:03:31;22.60;99.90
24468;DHT22;12634;50.852;5.676;2023-08-12T03:05:59;22.60;99.90
24468;DHT22;12634;50.852;5.676;2023-08-12T03:08:26;22.60;99.90
24468;DHT22;12634;50.852;5.676;2023-08-12T03:10:58;22.60;99.90
24468;DHT22;12634;50.852;5.676;2023-08-12T03:13:26;22.70;99.90
24468;DHT22;12634;50.852;5.676;2023-08-12T03:15:53;22.70;99.90
24468;DHT22;12634;50.852;5.676;2023-08-12T03:18:21;22.70;99.90
24468;DHT22;12634;50.852;5.676;2023-08-12T03:20:48;22.70;99.90
24468;DHT22;12634;50.852;5.676;2023-08-12T03:23:16;22.70;99.90
24468;DHT22;12634;50.852;5.676;2023-08-12T03:25:44;22.70;99.90
24468;DHT22;12634;50.852;5.676;2023-08-12T03:28:13;22.60;99.90
24468;DHT22;12634;50.852;5.676;2023-08-12T03:30:40;22.60;99.90
24468;DHT22;12634;50.852;5.676;2023-08-12T03:33:07;22.70;99.90
24468;DHT22;12634;50.852;5.676;2023-08-12T03:35:35;22.70;99.90
24468;DHT22;12634;50.852;5.676;2023-08-12T03:38:02;22.70;99.90
24468;DHT22;12634;50.852;5.676;2023-08-12T03:40:30;22.60;99.90
24468;DHT22;12634;50.852;5.676;2023-08-12T03:42:57;22.60;99.90
24468;DHT22;12634;50.852;5.676;2023-08-12T03:45:25;22.60;99.90
24468;DHT22;12634;50.852;5.676;2023-08-12T03:47:52;22.60;99.90
24468;DHT22;12634;50.852;5.676;2023-08-12T03:50:19;22.60;99.90
24468;DHT22;12634;50.852;5.676;2023-08-12T03:52:46;22.60;99.90
24468;DHT22;12634;50.852;5.676;2023-08-12T03:55:14;22.60;99.90
24468;DHT22;12634;50.852;5.676;2023-08-12T03:57:42;22.60;99.90
24468;DHT22;12634;50.852;5.676;2023-08-12T04:00:10;22.60;99.90
24468;DHT22;12634;50.852;5.676;2023-08-12T04:02:38;22.60;99.90
24468;DHT22;12634;50.852;5.676;2023-08-12T04:05:06;22.60;99.90
24468;DHT22;12634;50.852;5.676;2023-08-12T04:07:33;22.60;99.90
24468;DHT22;12634;50.852;5.676;2023-08-12T04:10:00;22.60;99.90
24468;DHT22;12634;50.852;5.676;2023-08-12T04:12:27;22.60;99.90
24468;DHT22;12634;50.852;5.676;2023-08-12T04:14:56;22.50;99.90
24468;DHT22;12634;50.852;5.676;2023-08-12T04:17:23;22.60;99.90
24468;DHT22;12634;50.852;5.676;2023-08-12T04:19:50;22.50;99.90
24468;DHT22;12634;50.852;5.676;2023-08-12T04:22:17;22.60;99.90
24468;DHT22;12634;50.852;5.676;2023-08-12T04:24:45;22.60;99.90
24468;DHT22;12634;50.852;5.676;2023-08-12T04:27:12;22.60;99.90
24468;DHT22;12634;50.852;5.676;2023-08-12T04:29:39;22.60;99.90
24468;DHT22;12634;50.852;5.676;2023-08-12T04:32:08;22.60;99.90
24468;DHT22;12634;50.852;5.676;2023-08-12T04:34:35;22.60;99.90
24468;DHT22;12634;50.852;5.676;2023-08-12T04:37:03;22.60;99.90
24468;DHT22;12634;50.852;5.676;2023-08-12T04:39:30;22.50;99.90
24468;DHT22;12634;50.852;5.676;2023-08-12T04:41:58;22.40;99.90
24468;DHT22;12634;50.852;5.676;2023-08-12T04:44:25;22.50;99.90
24468;DHT22;12634;50.852;5.676;2023-08-12T04:46:52;22.40;99.90
24468;DHT22;12634;50.852;5.676;2023-08-12T04:49:21;22.30;99.90
24468;DHT22;12634;50.852;5.676;2023-08-12T04:51:51;22.30;99.90
24468;DHT22;12634;50.852;5.676;2023-08-12T04:54:18;22.30;99.90
24468;DHT22;12634;50.852;5.676;2023-08-12T04:56:45;22.10;99.90
24468;DHT22;12634;50.852;5.676;2023-08-12T04:59:13;22.10;99.90
24468;DHT22;12634;50.852;5.676;2023-08-12T05:01:40;22.00;99.90
24468;DHT22;12634;50.852;5.676;2023-08-12T05:04:07;22.00;99.90
24468;DHT22;12634;50.852;5.676;2023-08-12T05:06:36;21.90;99.90
24468;DHT22;12634;50.852;5.676;2023-08-12T05:09:03;21.80;99.90
24468;DHT22;12634;50.852;5.676;2023-08-12T05:11:31;21.80;99.90
24468;DHT22;12634;50.852;5.676;2023-08-12T05:13:58;21.80;99.90
24468;DHT22;12634;50.852;5.676;2023-08-12T05:16:25;21.80;99.90
24468;DHT22;12634;50.852;5.676;2023-08-12T05:18:52;21.60;99.90
24468;DHT22;12634;50.852;5.676;2023-08-12T05:21:20;21.60;99.90
24468;DHT22;12634;50.852;5.676;2023-08-12T05:23:48;21.60;99.90
24468;DHT22;12634;50.852;5.676;2023-08-12T05:26:15;21.60;99.90
24468;DHT22;12634;50.852;5.676;2023-08-12T05:28:43;21.60;99.90
24468;DHT22;12634;50.852;5.676;2023-08-12T05:31:10;21.60;99.90
24468;DHT22;12634;50.852;5.676;2023-08-12T05:33:37;21.60;99.90
24468;DHT22;12634;50.852;5.676;2023-08-12T05:36:04;21.50;99.90
24468;DHT22;12634;50.852;5.676;2023-08-12T05:38:31;21.50;99.90
24468;DHT22;12634;50.852;5.676;2023-08-12T05:41:00;21.40;99.90
24468;DHT22;12634;50.852;5.676;2023-08-12T05:43:29;21.40;99.90
24468;DHT22;12634;50.852;5.676;2023-08-12T05:45:57;21.50;99.90
24468;DHT22;12634;50.852;5.676;2023-08-12T05:48:24;21.50;99.90
24468;DHT22;12634;50.852;5.676;2023-08-12T05:50:51;21.40;99.90
24468;DHT22;12634;50.852;5.676;2023-08-12T05:53:18;21.40;99.90
24468;DHT22;12634;50.852;5.676;2023-08-12T05:55:45;21.40;99.90
24468;DHT22;12634;50.852;5.676;2023-08-12T05:58:14;21.40;99.90
24468;DHT22;12634;50.852;5.676;2023-08-12T06:00:41;21.50;99.90
24468;DHT22;12634;50.852;5.676;2023-08-12T06:03:11;21.50;99.90
24468;DHT22;12634;50.852;5.676;2023-08-12T06:05:39;21.50;99.90
24468;DHT22;12634;50.852;5.676;2023-08-12T06:08:07;21.50;99.90
24468;DHT22;12634;50.852;5.676;2023-08-12T06:10:34;21.50;99.90
24468;DHT22;12634;50.852;5.676;2023-08-12T06:13:01;21.50;99.90
24468;DHT22;12634;50.852;5.676;2023-08-12T06:15:30;21.60;99.90
24468;DHT22;12634;50.852;5.676;2023-08-12T06:17:58;21.60;99.90
24468;DHT22;12634;50.852;5.676;2023-08-12T06:20:25;21.50;99.90
24468;DHT22;12634;50.852;5.676;2023-08-12T06:22:53;21.50;99.90
24468;DHT22;12634;50.852;5.676;2023-08-12T06:25:20;21.50;99.90
24468;DHT22;12634;50.852;5.676;2023-08-12T06:27:47;21.50;99.90
24468;DHT22;12634;50.852;5.676;2023-08-12T06:30:14;21.50;99.90
24468;DHT22;12634;50.852;5.676;2023-08-12T06:32:43;21.40;99.90
24468;DHT22;12634;50.852;5.676;2023-08-12T06:35:10;21.40;99.90
24468;DHT22;12634;50.852;5.676;2023-08-12T06:37:37;21.40;99.90
24468;DHT22;12634;50.852;5.676;2023-08-12T06:40:06;21.40;99.90
24468;DHT22;12634;50.852;5.676;2023-08-12T06:42:34;21.40;99.90
24468;DHT22;12634;50.852;5.676;2023-08-12T06:45:01;21.40;99.90
24468;DHT22;12634;50.852;5.676;2023-08-12T06:47:29;21.40;99.90
24468;DHT22;12634;50.852;5.676;2023-08-12T06:49:58;21.40;99.90
24468;DHT22;12634;50.852;5.676;2023-08-12T06:52:25;21.30;99.90
24468;DHT22;12634;50.852;5.676;2023-08-12T06:54:53;21.30;99.90
24468;DHT22;12634;50.852;5.676;2023-08-12T06:57:20;21.30;99.90
24468;DHT22;12634;50.852;5.676;2023-08-12T06:59:47;21.20;99.90
24468;DHT22;12634;50.852;5.676;2023-08-12T07:02:14;21.30;99.90
24468;DHT22;12634;50.852;5.676;2023-08-12T07:04:41;21.30;99.90
24468;DHT22;12634;50.852;5.676;2023-08-12T07:07:10;21.30;99.90
24468;DHT22;12634;50.852;5.676;2023-08-12T07:09:37;21.30;99.90
24468;DHT22;12634;50.852;5.676;2023-08-12T07:12:05;21.30;99.90
24468;DHT22;12634;50.852;5.676;2023-08-12T07:14:32;21.30;99.90
24468;DHT22;12634;50.852;5.676;2023-08-12T07:16:59;21.40;99.90
24468;DHT22;12634;50.852;5.676;2023-08-12T07:19:27;21.30;99.90
24468;DHT22;12634;50.852;5.676;2023-08-12T07:21:54;21.30;99.90
24468;DHT22;12634;50.852;5.676;2023-08-12T07:24:22;21.20;99.90
24468;DHT22;12634;50.852;5.676;2023-08-12T07:26:49;21.20;99.90
24468;DHT22;12634;50.852;5.676;2023-08-12T07:29:17;21.30;99.90
24468;DHT22;12634;50.852;5.676;2023-08-12T07:31:44;21.30;99.90
24468;DHT22;12634;50.852;5.676;2023-08-12T07:34:11;21.30;99.90
24468;DHT22;12634;50.852;5.676;2023-08-12T07:36:39;21.30;99.90
24468;DHT22;12634;50.852;5.676;2023-08-12T07:39:07;21.30;99.90
24468;DHT22;12634;50.852;5.676;2023-08-12T07:41:35;21.30;99.90
24468;DHT22;12634;50.852;5.676;2023-08-12T07:44:03;21.30;99.90
24468;DHT22;12634;50.852;5.676;2023-08-12T07:46:31;21.30;99.90
24468;DHT22;12634;50.852;5.676;2023-08-12T07:48:58;21.30;99.90
24468;DHT22;12634;50.852;5.676;2023-08-12T07:51:25;21.30;99.90
24468;DHT22;12634;50.852;5.676;2023-08-12T07:53:52;21.40;99.90
24468;DHT22;12634;50.852;5.676;2023-08-12T07:56:19;21.50;99.90
24468;DHT22;12634;50.852;5.676;2023-08-12T07:58:48;21.60;99.90
24468;DHT22;12634;50.852;5.676;2023-08-12T08:01:15;21.60;99.90
24468;DHT22;12634;50.852;5.676;2023-08-12T08:03:42;21.60;99.90
24468;DHT22;12634;50.852;5.676;2023-08-12T08:06:10;21.60;99.90
24468;DHT22;12634;50.852;5.676;2023-08-12T08:08:37;21.70;99.90
24468;DHT22;12634;50.852;5.676;2023-08-12T08:11:04;21.80;99.90
24468;DHT22;12634;50.852;5.676;2023-08-12T08:13:32;21.80;99.90
24468;DHT22;12634;50.852;5.676;2023-08-12T08:16:00;21.80;99.90
24468;DHT22;12634;50.852;5.676;2023-08-12T08:18:27;21.70;99.90
24468;DHT22;12634;50.852;5.676;2023-08-12T08:20:55;21.70;99.90
24468;DHT22;12634;50.852;5.676;2023-08-12T08:23:22;21.70;99.90
24468;DHT22;12634;50.852;5.676;2023-08-12T08:25:49;21.60;99.90
24468;DHT22;12634;50.852;5.676;2023-08-12T08:28:17;21.80;99.90
24468;DHT22;12634;50.852;5.676;2023-08-12T08:30:44;21.80;99.90
24468;DHT22;12634;50.852;5.676;2023-08-12T08:33:13;21.90;99.90
24468;DHT22;12634;50.852;5.676;2023-08-12T08:35:40;22.30;99.90
24468;DHT22;12634;50.852;5.676;2023-08-12T08:38:07;22.00;99.90
24468;DHT22;12634;50.852;5.676;2023-08-12T08:40:34;22.20;99.90
24468;DHT22;12634;50.852;5.676;2023-08-12T08:43:04;22.20;99.90
24468;DHT22;12634;50.852;5.676;2023-08-12T08:45:32;22.00;99.90
24468;DHT22;12634;50.852;5.676;2023-08-12T08:48:00;22.10;99.90
24468;DHT22;12634;50.852;5.676;2023-08-12T08:50:30;21.90;99.90
24468;DHT22;12634;50.852;5.676;2023-08-12T08:52:58;21.80;99.90
24468;DHT22;12634;50.852;5.676;2023-08-12T08:55:26;21.90;99.90
24468;DHT22;12634;50.852;5.676;2023-08-12T08:57:54;21.80;99.90
24468;DHT22;12634;50.852;5.676;2023-08-12T09:00:23;21.90;99.90
24468;DHT22;12634;50.852;5.676;2023-08-12T09:02:50;21.70;99.90
24468;DHT22;12634;50.852;5.676;2023-08-12T09:05:19;21.70;99.90
24468;DHT22;12634;50.852;5.676;2023-08-12T09:07:49;21.80;99.90
24468;DHT22;12634;50.852;5.676;2023-08-12T09:10:17;21.80;99.90
24468;DHT22;12634;50.852;5.676;2023-08-12T09:12:47;21.90;99.90
24468;DHT22;12634;50.852;5.676;2023-08-12T09:15:16;22.10;99.90
24468;DHT22;12634;50.852;5.676;2023-08-12T09:17:44;22.20;99.90
24468;DHT22;12634;50.852;5.676;2023-08-12T09:20:12;22.20;99.90
24468;DHT22;12634;50.852;5.676;2023-08-12T09:22:40;22.00;99.90
24468;DHT22;12634;50.852;5.676;2023-08-12T09:25:09;21.70;99.90
24468;DHT22;12634;50.852;5.676;2023-08-12T09:27:37;21.90;99.90
24468;DHT22;12634;50.852;5.676;2023-08-12T09:30:07;21.90;99.90
24468;DHT22;12634;50.852;5.676;2023-08-12T09:32:35;21.90;99.90
24468;DHT22;12634;50.852;5.676;2023-08-12T09:35:04;21.90;99.90
24468;DHT22;12634;50.852;5.676;2023-08-12T09:37:32;22.00;99.90
24468;DHT22;12634;50.852;5.676;2023-08-12T09:39:59;22.10;99.90
24468;DHT22;12634;50.852;5.676;2023-08-12T09:42:33;22.10;99.90
24468;DHT22;12634;50.852;5.676;2023-08-12T09:45:01;22.10;99.90
24468;DHT22;12634;50.852;5.676;2023-08-12T09:47:28;22.00;99.90
24468;DHT22;12634;50.852;5.676;2023-08-12T09:49:56;21.90;99.90
24468;DHT22;12634;50.852;5.676;2023-08-12T09:52:24;22.00;99.90
24468;DHT22;12634;50.852;5.676;2023-08-12T09:54:55;22.00;99.90
24468;DHT22;12634;50.852;5.676;2023-08-12T09:57:25;22.00;99.90
24468;DHT22;12634;50.852;5.676;2023-08-12T09:59:58;21.90;99.90
24468;DHT22;12634;50.852;5.676;2023-08-12T10:02:27;21.90;99.90
24468;DHT22;12634;50.852;5.676;2023-08-12T10:04:56;21.80;99.90
24468;DHT22;12634;50.852;5.676;2023-08-12T10:07:24;21.80;99.90
24468;DHT22;12634;50.852;5.676;2023-08-12T10:09:52;21.80;99.90
24468;DHT22;12634;50.852;5.676;2023-08-12T10:12:21;21.90;99.90
24468;DHT22;12634;50.852;5.676;2023-08-12T10:14:48;22.20;99.90
24468;DHT22;12634;50.852;5.676;2023-08-12T10:17:18;22.30;99.90
24468;DHT22;12634;50.852;5.676;2023-08-12T10:19:46;22.30;99.90
24468;DHT22;12634;50.852;5.676;2023-08-12T10:22:14;22.20;99.90
24468;DHT22;12634;50.852;5.676;2023-08-12T10:24:42;22.30;99.90
24468;DHT22;12634;50.852;5.676;2023-08-12T10:27:12;22.40;99.90
24468;DHT22;12634;50.852;5.676;2023-08-12T10:29:42;22.60;99.90
24468;DHT22;12634;50.852;5.676;2023-08-12T10:32:11;22.90;99.90
24468;DHT22;12634;50.852;5.676;2023-08-12T10:34:41;22.70;99.90
24468;DHT22;12634;50.852;5.676;2023-08-12T10:37:10;22.80;99.90
24468;DHT22;12634;50.852;5.676;2023-08-12T10:39:38;22.80;99.90
24468;DHT22;12634;50.852;5.676;2023-08-12T10:42:06;22.40;99.90
24468;DHT22;12634;50.852;5.676;2023-08-12T10:44:39;22.20;99.90
24468;DHT22;12634;50.852;5.676;2023-08-12T10:47:08;21.90;99.90
24468;DHT22;12634;50.852;5.676;2023-08-12T10:49:38;21.60;99.90
24468;DHT22;12634;50.852;5.676;2023-08-12T10:52:25;21.40;99.90
24468;DHT22;12634;50.852;5.676;2023-08-12T10:54:53;21.40;99.90
24468;DHT22;12634;50.852;5.676;2023-08-12T10:57:34;21.60;99.90
24468;DHT22;12634;50.852;5.676;2023-08-12T11:00:04;21.70;99.90
24468;DHT22;12634;50.852;5.676;2023-08-12T11:02:34;21.70;99.90
24468;DHT22;12634;50.852;5.676;2023-08-12T11:05:03;21.70;99.90
24468;DHT22;12634;50.852;5.676;2023-08-12T11:07:40;21.60;99.90
24468;DHT22;12634;50.852;5.676;2023-08-12T11:10:13;21.60;99.90
24468;DHT22;12634;50.852;5.676;2023-08-12T11:12:42;21.60;99.90
24468;DHT22;12634;50.852;5.676;2023-08-12T11:15:12;21.50;99.90
24468;DHT22;12634;50.852;5.676;2023-08-12T11:17:41;21.30;99.90
24468;DHT22;12634;50.852;5.676;2023-08-12T11:20:10;21.20;99.90
24468;DHT22;12634;50.852;5.676;2023-08-12T11:22:40;21.20;99.90
24468;DHT22;12634;50.852;5.676;2023-08-12T11:25:09;21.30;99.90
24468;DHT22;12634;50.852;5.676;2023-08-12T11:27:38;21.30;99.90
24468;DHT22;12634;50.852;5.676;2023-08-12T11:30:06;21.60;99.90
24468;DHT22;12634;50.852;5.676;2023-08-12T11:32:34;21.80;99.90
24468;DHT22;12634;50.852;5.676;2023-08-12T11:35:02;21.50;99.90
24468;DHT22;12634;50.852;5.676;2023-08-12T11:37:31;21.30;99.90
24468;DHT22;12634;50.852;5.676;2023-08-12T11:40:01;21.40;99.90
24468;DHT22;12634;50.852;5.676;2023-08-12T11:42:29;21.40;99.90
24468;DHT22;12634;50.852;5.676;2023-08-12T11:44:56;21.60;99.90
24468;DHT22;12634;50.852;5.676;2023-08-12T11:47:24;21.70;99.90
24468;DHT22;12634;50.852;5.676;2023-08-12T11:49:52;21.40;99.90
24468;DHT22;12634;50.852;5.676;2023-08-12T11:52:19;21.20;99.90
24468;DHT22;12634;50.852;5.676;2023-08-12T11:54:49;20.90;99.90
24468;DHT22;12634;50.852;5.676;2023-08-12T11:57:19;20.90;99.90
24468;DHT22;12634;50.852;5.676;2023-08-12T11:59:48;21.00;99.90
24468;DHT22;12634;50.852;5.676;2023-08-12T12:02:16;21.10;99.90
24468;DHT22;12634;50.852;5.676;2023-08-12T12:04:43;21.30;99.90
24468;DHT22;12634;50.852;5.676;2023-08-12T12:07:20;21.50;99.90
24468;DHT22;12634;50.852;5.676;2023-08-12T12:09:50;21.90;99.90
24468;DHT22;12634;50.852;5.676;2023-08-12T12:12:22;22.00;99.90
24468;DHT22;12634;50.852;5.676;2023-08-12T12:14:51;22.20;99.90
24468;DHT22;12634;50.852;5.676;2023-08-12T12:17:21;22.50;99.90
24468;DHT22;12634;50.852;5.676;2023-08-12T12:19:53;23.20;99.90
24468;DHT22;12634;50.852;5.676;2023-08-12T12:22:26;23.90;99.90
24468;DHT22;12634;50.852;5.676;2023-08-12T12:24:57;23.80;99.90
24468;DHT22;12634;50.852;5.676;2023-08-12T12:27:26;23.20;99.90
24468;DHT22;12634;50.852;5.676;2023-08-12T12:29:53;23.20;99.90
24468;DHT22;12634;50.852;5.676;2023-08-12T12:32:20;23.10;99.90
24468;DHT22;12634;50.852;5.676;2023-08-12T12:34:48;22.70;99.90
24468;DHT22;12634;50.852;5.676;2023-08-12T12:37:15;22.80;99.90
24468;DHT22;12634;50.852;5.676;2023-08-12T12:39:42;23.00;99.90
24468;DHT22;12634;50.852;5.676;2023-08-12T12:42:10;23.50;99.90
24468;DHT22;12634;50.852;5.676;2023-08-12T12:44:39;23.50;99.90
24468;DHT22;12634;50.852;5.676;2023-08-12T12:47:06;23.10;99.90
24468;DHT22;12634;50.852;5.676;2023-08-12T12:49:33;23.20;99.90
24468;DHT22;12634;50.852;5.676;2023-08-12T12:52:00;23.00;99.90
24468;DHT22;12634;50.852;5.676;2023-08-12T12:54:27;23.40;99.90
24468;DHT22;12634;50.852;5.676;2023-08-12T12:56:56;24.40;99.90
24468;DHT22;12634;50.852;5.676;2023-08-12T12:59:23;25.20;99.90
24468;DHT22;12634;50.852;5.676;2023-08-12T13:01:52;25.20;99.90
24468;DHT22;12634;50.852;5.676;2023-08-12T13:04:19;24.40;99.90
24468;DHT22;12634;50.852;5.676;2023-08-12T13:06:46;25.10;99.90
24468;DHT22;12634;50.852;5.676;2023-08-12T13:09:14;25.40;99.90
24468;DHT22;12634;50.852;5.676;2023-08-12T13:11:41;25.60;99.90
24468;DHT22;12634;50.852;5.676;2023-08-12T13:14:08;25.70;99.90
24468;DHT22;12634;50.852;5.676;2023-08-12T13:16:35;26.10;99.90
24468;DHT22;12634;50.852;5.676;2023-08-12T13:19:04;26.20;99.90
24468;DHT22;12634;50.852;5.676;2023-08-12T13:21:32;26.20;99.90
24468;DHT22;12634;50.852;5.676;2023-08-12T13:23:59;26.30;99.90
24468;DHT22;12634;50.852;5.676;2023-08-12T13:26:27;26.30;99.90
24468;DHT22;12634;50.852;5.676;2023-08-12T13:28:54;25.60;99.90
24468;DHT22;12634;50.852;5.676;2023-08-12T13:31:21;25.00;99.90
24468;DHT22;12634;50.852;5.676;2023-08-12T13:33:50;24.70;99.90
24468;DHT22;12634;50.852;5.676;2023-08-12T13:36:19;25.10;99.90
24468;DHT22;12634;50.852;5.676;2023-08-12T13:38:46;25.60;99.90
24468;DHT22;12634;50.852;5.676;2023-08-12T13:41:13;26.10;99.90
24468;DHT22;12634;50.852;5.676;2023-08-12T13:43:41;26.10;99.90
24468;DHT22;12634;50.852;5.676;2023-08-12T13:46:08;26.20;99.90
24468;DHT22;12634;50.852;5.676;2023-08-12T13:48:35;25.70;99.90
24468;DHT22;12634;50.852;5.676;2023-08-12T13:51:02;26.70;99.90
24468;DHT22;12634;50.852;5.676;2023-08-12T13:53:31;27.10;99.90
24468;DHT22;12634;50.852;5.676;2023-08-12T13:55:58;27.20;99.90
24468;DHT22;12634;50.852;5.676;2023-08-12T13:58:25;27.30;99.90
24468;DHT22;12634;50.852;5.676;2023-08-12T14:00:52;27.60;99.90
24468;DHT22;12634;50.852;5.676;2023-08-12T14:03:20;27.90;99.90
24468;DHT22;12634;50.852;5.676;2023-08-12T14:05:47;27.90;99.90
24468;DHT22;12634;50.852;5.676;2023-08-12T14:08:14;26.40;99.90
24468;DHT22;12634;50.852;5.676;2023-08-12T14:10:43;26.60;99.90
24468;DHT22;12634;50.852;5.676;2023-08-12T14:13:10;26.60;99.90
24468;DHT22;12634;50.852;5.676;2023-08-12T14:15:37;26.10;99.90
24468;DHT22;12634;50.852;5.676;2023-08-12T14:18:04;26.10;99.90
24468;DHT22;12634;50.852;5.676;2023-08-12T14:20:32;25.90;99.90
24468;DHT22;12634;50.852;5.676;2023-08-12T14:22:59;25.90;99.90
24468;DHT22;12634;50.852;5.676;2023-08-12T14:25:26;24.90;99.90
24468;DHT22;12634;50.852;5.676;2023-08-12T14:27:55;25.20;99.90
24468;DHT22;12634;50.852;5.676;2023-08-12T14:30:24;25.40;99.90
24468;DHT22;12634;50.852;5.676;2023-08-12T14:32:52;25.70;99.90
24468;DHT22;12634;50.852;5.676;2023-08-12T14:35:19;26.10;99.90
24468;DHT22;12634;50.852;5.676;2023-08-12T14:37:46;25.60;99.90
24468;DHT22;12634;50.852;5.676;2023-08-12T14:40:14;25.80;99.90
24468;DHT22;12634;50.852;5.676;2023-08-12T14:42:41;25.40;99.90
24468;DHT22;12634;50.852;5.676;2023-08-12T14:45:10;25.30;99.90
24468;DHT22;12634;50.852;5.676;2023-08-12T14:47:37;25.20;99.90
24468;DHT22;12634;50.852;5.676;2023-08-12T14:50:05;25.40;99.90
24468;DHT22;12634;50.852;5.676;2023-08-12T14:52:34;25.20;99.90
24468;DHT22;12634;50.852;5.676;2023-08-12T14:55:01;25.60;99.90
24468;DHT22;12634;50.852;5.676;2023-08-12T14:57:28;26.60;99.90
24468;DHT22;12634;50.852;5.676;2023-08-12T14:59:55;26.20;99.90
24468;DHT22;12634;50.852;5.676;2023-08-12T15:02:24;26.30;99.90
24468;DHT22;12634;50.852;5.676;2023-08-12T15:04:51;26.60;99.90
24468;DHT22;12634;50.852;5.676;2023-08-12T15:07:19;26.60;99.90
24468;DHT22;12634;50.852;5.676;2023-08-12T15:09:47;26.20;99.90
24468;DHT22;12634;50.852;5.676;2023-08-12T15:12:14;26.30;99.90
24468;DHT22;12634;50.852;5.676;2023-08-12T15:14:42;26.20;99.90
24468;DHT22;12634;50.852;5.676;2023-08-12T15:17:09;25.70;99.90
24468;DHT22;12634;50.852;5.676;2023-08-12T15:19:38;26.00;99.90
24468;DHT22;12634;50.852;5.676;2023-08-12T15:22:05;25.90;99.90
24468;DHT22;12634;50.852;5.676;2023-08-12T15:24:32;25.50;99.90
24468;DHT22;12634;50.852;5.676;2023-08-12T15:26:59;25.90;99.90
24468;DHT22;12634;50.852;5.676;2023-08-12T15:29:27;26.40;99.90
24468;DHT22;12634;50.852;5.676;2023-08-12T15:31:54;26.60;99.90
24468;DHT22;12634;50.852;5.676;2023-08-12T15:34:22;26.70;99.90